createdAt,value
2019-03-24T00:00:58.489Z,11.66
2019-03-24T00:01:58.463Z,11.63
2019-03-24T00:02:58.469Z,11.68
2019-03-24T00:03:58.478Z,11.65
2019-03-24T00:04:58.447Z,11.55
2019-03-24T00:05:58.407Z,11.47
2019-03-24T00:06:58.405Z,11.54
2019-03-24T00:07:58.410Z,11.57
2019-03-24T00:08:58.390Z,11.54
2019-03-24T00:09:58.355Z,11.51
2019-03-24T00:10:58.344Z,11.50
2019-03-24T00:11:58.337Z,11.51
2019-03-24T00:12:58.326Z,11.48
2019-03-24T00:13:58.317Z,11.51
2019-03-24T00:14:58.318Z,11.55
2019-03-24T00:15:58.295Z,11.50
2019-03-24T00:16:58.351Z,11.40
2019-03-24T00:17:58.272Z,11.43
2019-03-24T00:18:58.260Z,11.40
2019-03-24T00:19:58.282Z,11.44
2019-03-24T00:20:58.241Z,11.37
2019-03-24T00:21:58.222Z,11.32
2019-03-24T00:22:58.230Z,11.32
2019-03-24T00:23:58.200Z,11.27
2019-03-24T00:24:58.190Z,11.33
2019-03-24T00:25:58.216Z,11.27
2019-03-24T00:26:58.178Z,11.33
2019-03-24T00:27:58.160Z,11.23
2019-03-24T00:28:58.149Z,11.30
2019-03-24T00:29:58.152Z,11.26
2019-03-24T00:30:58.134Z,11.22
2019-03-24T00:31:58.187Z,11.23
2019-03-24T00:32:58.157Z,11.15
2019-03-24T00:33:58.094Z,11.25
2019-03-24T00:34:58.093Z,11.15
2019-03-24T00:35:58.076Z,11.15
2019-03-24T00:36:58.589Z,11.17
2019-03-24T00:37:58.058Z,11.15
2019-03-24T00:38:58.050Z,11.04
2019-03-24T00:39:58.047Z,11.18
2019-03-24T00:40:58.034Z,11.12
2019-03-24T00:41:58.013Z,11.14
2019-03-24T00:42:58.049Z,11.15
2019-03-24T00:43:57.993Z,11.18
2019-03-24T00:44:57.987Z,11.11
2019-03-24T00:45:57.971Z,11.19
2019-03-24T00:46:57.959Z,11.17
2019-03-24T00:47:57.974Z,11.18
2019-03-24T00:48:57.939Z,11.19
2019-03-24T00:49:57.945Z,11.18
2019-03-24T00:50:57.925Z,11.23
2019-03-24T00:51:57.915Z,11.19
2019-03-24T00:52:57.921Z,11.22
2019-03-24T00:53:57.951Z,11.25
2019-03-24T00:54:57.874Z,11.26
2019-03-24T00:55:57.864Z,11.25
2019-03-24T00:56:57.882Z,11.25
2019-03-24T00:57:57.848Z,11.22
2019-03-24T00:58:58.009Z,11.25
2019-03-24T00:59:57.819Z,11.26
2019-03-24T01:00:57.812Z,11.30
2019-03-24T01:01:57.806Z,11.26
2019-03-24T01:02:57.834Z,11.27
2019-03-24T01:03:57.829Z,11.19
2019-03-24T01:04:57.777Z,11.19
2019-03-24T01:05:57.759Z,11.29
2019-03-24T01:06:57.810Z,11.30
2019-03-24T01:07:57.741Z,11.40
2019-03-24T01:08:57.726Z,11.26
2019-03-24T01:09:57.744Z,11.36
2019-03-24T01:10:57.714Z,11.30
2019-03-24T01:11:57.698Z,11.19
2019-03-24T01:12:57.687Z,11.29
2019-03-24T01:13:57.674Z,11.27
2019-03-24T01:14:57.713Z,11.22
2019-03-24T01:15:57.656Z,11.19
2019-03-24T01:16:57.654Z,11.26
2019-03-24T01:17:57.628Z,11.27
2019-03-24T01:18:57.620Z,11.18
2019-03-24T01:19:57.607Z,11.22
2019-03-24T01:20:57.622Z,11.17
2019-03-24T01:21:57.594Z,11.12
2019-03-24T01:22:57.586Z,11.14
2019-03-24T01:23:57.571Z,11.00
2019-03-24T01:24:57.560Z,11.02
2019-03-24T01:25:57.594Z,11.11
2019-03-24T01:26:57.535Z,11.10
2019-03-24T01:27:57.527Z,11.04
2019-03-24T01:28:57.515Z,10.96
2019-03-24T01:29:57.515Z,10.89
2019-03-24T01:30:57.506Z,10.87
2019-03-24T01:31:57.514Z,10.81
2019-03-24T01:32:57.471Z,10.82
2019-03-24T01:33:57.489Z,10.81
2019-03-24T01:34:57.467Z,10.79
2019-03-24T01:35:57.451Z,10.69
2019-03-24T01:36:57.435Z,10.69
2019-03-24T01:37:57.442Z,10.67
2019-03-24T01:38:57.407Z,10.71
2019-03-24T01:39:57.399Z,10.63
2019-03-24T01:40:57.395Z,10.64
2019-03-24T01:41:57.386Z,10.69
2019-03-24T01:42:57.400Z,10.67
2019-03-24T01:43:57.370Z,10.61
2019-03-24T01:44:57.352Z,10.67
2019-03-24T01:45:58.785Z,10.67
2019-03-24T01:46:57.321Z,10.74
2019-03-24T01:47:57.322Z,10.67
2019-03-24T01:48:57.329Z,10.67
2019-03-24T01:49:57.293Z,10.54
2019-03-24T01:50:57.282Z,10.60
2019-03-24T01:51:57.272Z,10.54
2019-03-24T01:52:57.259Z,10.61
2019-03-24T01:53:57.403Z,10.69
2019-03-24T01:54:57.244Z,10.60
2019-03-24T01:55:57.228Z,10.56
2019-03-24T01:56:57.229Z,10.60
2019-03-24T01:57:57.213Z,10.59
2019-03-24T01:58:57.228Z,10.60
2019-03-24T01:59:57.189Z,10.60
2019-03-24T02:00:57.176Z,10.63
2019-03-24T02:01:57.171Z,10.63
2019-03-24T02:02:57.158Z,10.59
2019-03-24T02:03:57.144Z,10.54
2019-03-24T02:04:57.162Z,10.57
2019-03-24T02:05:57.154Z,10.54
2019-03-24T02:06:57.117Z,10.53
2019-03-24T02:07:57.108Z,10.44
2019-03-24T02:08:57.098Z,10.54
2019-03-24T02:09:57.221Z,10.48
2019-03-24T02:10:57.070Z,10.57
2019-03-24T02:11:57.099Z,10.48
2019-03-24T02:12:57.065Z,10.41
2019-03-24T02:13:57.568Z,10.38
2019-03-24T02:14:57.033Z,10.44
2019-03-24T02:15:57.041Z,10.40
2019-03-24T02:16:59.209Z,10.51
2019-03-24T02:17:56.995Z,10.31
2019-03-24T02:18:56.996Z,10.40
2019-03-24T02:19:56.981Z,10.33
2019-03-24T02:20:56.991Z,10.40
2019-03-24T02:21:56.953Z,10.44
2019-03-24T02:22:56.940Z,10.28
2019-03-24T02:23:56.937Z,10.31
2019-03-24T02:24:56.925Z,10.35
2019-03-24T02:25:56.941Z,10.38
2019-03-24T02:26:56.906Z,10.44
2019-03-24T02:27:56.901Z,10.28
2019-03-24T02:28:56.889Z,10.31
2019-03-24T02:29:56.868Z,10.33
2019-03-24T02:30:56.880Z,10.35
2019-03-24T02:31:56.858Z,10.26
2019-03-24T02:32:56.835Z,10.28
2019-03-24T02:33:56.896Z,10.28
2019-03-24T02:34:56.830Z,10.35
2019-03-24T02:35:56.829Z,10.23
2019-03-24T02:36:56.797Z,10.26
2019-03-24T02:37:56.822Z,10.25
2019-03-24T02:38:56.789Z,10.28
2019-03-24T02:39:56.768Z,10.26
2019-03-24T02:40:56.758Z,10.17
2019-03-24T02:41:56.746Z,10.23
2019-03-24T02:42:56.732Z,10.20
2019-03-24T02:43:56.739Z,10.20
2019-03-24T02:44:56.707Z,10.13
2019-03-24T02:45:56.703Z,10.20
2019-03-24T02:46:56.707Z,10.17
2019-03-24T02:47:56.680Z,10.10
2019-03-24T02:48:56.696Z,10.12
2019-03-24T02:49:56.655Z,10.13
2019-03-24T02:50:56.643Z,10.13
2019-03-24T02:51:56.646Z,10.12
2019-03-24T02:52:56.630Z,10.19
2019-03-24T02:53:56.633Z,10.12
2019-03-24T02:54:56.612Z,10.13
2019-03-24T02:55:56.595Z,10.10
2019-03-24T02:56:56.578Z,10.10
2019-03-24T02:57:56.574Z,10.07
2019-03-24T02:58:56.588Z,10.05
2019-03-24T02:59:56.556Z,10.10
2019-03-24T03:00:56.543Z,10.04
2019-03-24T03:01:56.526Z,9.99
2019-03-24T03:02:56.538Z,10.01
2019-03-24T03:03:56.527Z,9.95
2019-03-24T03:04:56.530Z,10.01
2019-03-24T03:05:56.490Z,10.02
2019-03-24T03:06:56.479Z,10.02
2019-03-24T03:07:56.463Z,10.02
2019-03-24T03:08:56.452Z,9.98
2019-03-24T03:09:56.447Z,10.01
2019-03-24T03:10:56.548Z,9.84
2019-03-24T03:11:56.428Z,9.92
2019-03-24T03:12:56.411Z,9.89
2019-03-24T03:13:56.401Z,9.92
2019-03-24T03:14:56.416Z,9.89
2019-03-24T03:15:56.408Z,9.89
2019-03-24T03:16:56.372Z,9.91
2019-03-24T03:17:56.360Z,9.91
2019-03-24T03:18:56.349Z,9.86
2019-03-24T03:19:56.363Z,9.82
2019-03-24T03:20:56.329Z,9.80
2019-03-24T03:21:56.345Z,9.82
2019-03-24T03:22:56.323Z,9.79
2019-03-24T03:23:56.294Z,9.82
2019-03-24T03:24:56.290Z,9.83
2019-03-24T03:25:56.291Z,9.77
2019-03-24T03:26:56.286Z,9.73
2019-03-24T03:27:56.283Z,9.83
2019-03-24T03:28:56.240Z,9.77
2019-03-24T03:29:56.236Z,9.80
2019-03-24T03:30:56.227Z,9.77
2019-03-24T03:31:56.252Z,9.66
2019-03-24T03:32:56.202Z,9.69
2019-03-24T03:33:56.181Z,9.76
2019-03-24T03:34:56.208Z,9.76
2019-03-24T03:35:56.176Z,9.73
2019-03-24T03:36:56.194Z,9.74
2019-03-24T03:37:56.149Z,9.76
2019-03-24T03:38:56.137Z,9.72
2019-03-24T03:39:58.199Z,9.69
2019-03-24T03:40:56.106Z,9.66
2019-03-24T03:41:56.101Z,9.68
2019-03-24T03:42:56.114Z,9.69
2019-03-24T03:43:56.081Z,9.68
2019-03-24T03:44:56.068Z,9.66
2019-03-24T03:46:04.619Z,9.72
2019-03-24T03:47:04.127Z,9.56
2019-03-24T03:48:04.113Z,9.61
2019-03-24T03:48:56.037Z,9.62
2019-03-24T03:49:56.032Z,9.58
2019-03-24T03:50:56.013Z,9.58
2019-03-24T03:51:55.988Z,9.56
2019-03-24T03:52:56.012Z,9.58
2019-03-24T03:53:58.892Z,9.51
2019-03-24T03:54:55.963Z,9.58
2019-03-24T03:55:55.961Z,9.56
2019-03-24T03:56:55.939Z,9.55
2019-03-24T03:57:55.925Z,9.58
2019-03-24T03:58:55.938Z,9.62
2019-03-24T03:59:55.913Z,9.55
2019-03-24T04:00:55.934Z,9.58
2019-03-24T04:01:55.901Z,9.58
2019-03-24T04:02:55.881Z,9.62
2019-03-24T04:03:55.863Z,9.62
2019-03-24T04:04:55.870Z,9.59
2019-03-24T04:05:55.867Z,9.58
2019-03-24T04:06:55.840Z,9.61
2019-03-24T04:07:55.822Z,9.61
2019-03-24T04:08:55.817Z,9.61
2019-03-24T04:09:55.824Z,9.44
2019-03-24T04:10:55.810Z,9.48
2019-03-24T04:11:55.783Z,9.46
2019-03-24T04:12:55.769Z,9.44
2019-03-24T04:13:55.769Z,9.48
2019-03-24T04:14:55.757Z,9.50
2019-03-24T04:15:55.757Z,9.40
2019-03-24T04:17:06.351Z,9.44
2019-03-24T04:17:56.747Z,9.44
2019-03-24T04:18:55.708Z,9.46
2019-03-24T04:19:55.695Z,9.44
2019-03-24T04:20:55.686Z,9.41
2019-03-24T04:21:55.669Z,9.44
2019-03-24T04:22:55.685Z,9.43
2019-03-24T04:24:04.218Z,9.32
2019-03-24T04:24:55.649Z,9.43
2019-03-24T04:25:55.640Z,9.39
2019-03-24T04:26:55.642Z,9.34
2019-03-24T04:27:55.626Z,9.37
2019-03-24T04:28:55.618Z,9.31
2019-03-24T04:29:55.601Z,9.37
2019-03-24T04:30:55.581Z,9.32
2019-03-24T04:31:55.576Z,9.31
2019-03-24T04:32:55.603Z,9.23
2019-03-24T04:33:55.547Z,9.22
2019-03-24T04:34:55.531Z,9.26
2019-03-24T04:35:55.561Z,9.26
2019-03-24T04:36:55.536Z,9.25
2019-03-24T04:37:55.505Z,9.29
2019-03-24T04:38:55.545Z,9.23
2019-03-24T04:39:55.490Z,9.21
2019-03-24T04:40:55.468Z,9.11
2019-03-24T04:41:55.462Z,9.18
2019-03-24T04:42:55.466Z,9.10
2019-03-24T04:43:55.444Z,9.06
2019-03-24T04:44:55.476Z,9.11
2019-03-24T04:45:55.419Z,9.16
2019-03-24T04:46:55.411Z,9.13
2019-03-24T04:47:55.418Z,9.11
2019-03-24T04:48:55.411Z,9.13
2019-03-24T04:49:55.377Z,9.18
2019-03-24T04:50:55.365Z,9.16
2019-03-24T04:51:55.354Z,9.08
2019-03-24T04:52:55.341Z,9.18
2019-03-24T04:53:55.334Z,9.19
2019-03-24T04:54:55.346Z,9.03
2019-03-24T04:55:55.311Z,9.14
2019-03-24T04:56:55.306Z,9.08
2019-03-24T04:57:55.316Z,9.06
2019-03-24T04:58:55.275Z,9.04
2019-03-24T04:59:55.284Z,9.14
2019-03-24T05:00:55.251Z,9.04
2019-03-24T05:01:55.250Z,9.10
2019-03-24T05:02:55.239Z,9.08
2019-03-24T05:03:55.226Z,9.16
2019-03-24T05:04:55.237Z,9.08
2019-03-24T05:05:55.236Z,9.10
2019-03-24T05:06:55.190Z,9.08
2019-03-24T05:07:55.187Z,9.08
2019-03-24T05:08:55.173Z,9.08
2019-03-24T05:09:55.158Z,9.10
2019-03-24T05:10:55.149Z,9.10
2019-03-24T05:11:55.158Z,9.08
2019-03-24T05:12:55.127Z,9.02
2019-03-24T05:13:55.121Z,8.99
2019-03-24T05:14:55.116Z,8.99
2019-03-24T05:15:55.130Z,9.03
2019-03-24T05:16:55.109Z,8.99
2019-03-24T05:17:55.079Z,8.95
2019-03-24T05:18:55.062Z,8.97
2019-03-24T05:19:55.051Z,9.02
2019-03-24T05:20:55.042Z,8.97
2019-03-24T05:21:55.068Z,8.99
2019-03-24T05:22:55.029Z,8.91
2019-03-24T05:23:55.021Z,8.99
2019-03-24T05:24:54.996Z,9.00
2019-03-24T05:25:54.993Z,8.95
2019-03-24T05:26:54.983Z,9.03
2019-03-24T05:27:54.995Z,8.97
2019-03-24T05:28:54.981Z,9.00
2019-03-24T05:29:54.954Z,8.99
2019-03-24T05:30:54.937Z,8.99
2019-03-24T05:31:54.923Z,9.02
2019-03-24T05:32:54.933Z,8.95
2019-03-24T05:33:54.940Z,9.02
2019-03-24T05:34:54.897Z,9.00
2019-03-24T05:35:54.887Z,8.97
2019-03-24T05:36:54.877Z,9.00
2019-03-24T05:37:54.858Z,9.00
2019-03-24T05:38:54.847Z,9.08
2019-03-24T05:39:54.874Z,9.04
2019-03-24T05:40:54.834Z,9.10
2019-03-24T05:41:54.815Z,9.13
2019-03-24T05:42:54.842Z,9.10
2019-03-24T05:43:54.795Z,9.11
2019-03-24T05:44:54.785Z,9.06
2019-03-24T05:45:54.814Z,9.08
2019-03-24T05:46:54.783Z,9.03
2019-03-24T05:47:54.757Z,8.97
2019-03-24T05:48:54.748Z,8.99
2019-03-24T05:49:54.743Z,9.02
2019-03-24T05:50:54.738Z,9.08
2019-03-24T05:51:54.751Z,9.11
2019-03-24T05:52:54.703Z,8.94
2019-03-24T05:53:54.697Z,8.99
2019-03-24T05:54:54.685Z,9.06
2019-03-24T05:55:54.692Z,8.99
2019-03-24T05:56:54.676Z,9.03
2019-03-24T05:57:54.655Z,8.97
2019-03-24T05:58:54.642Z,9.04
2019-03-24T05:59:54.631Z,9.02
2019-03-24T06:00:54.623Z,9.08
2019-03-24T06:01:54.627Z,9.10
2019-03-24T06:02:54.603Z,9.06
2019-03-24T06:03:54.588Z,9.06
2019-03-24T06:04:54.612Z,9.13
2019-03-24T06:05:54.567Z,9.06
2019-03-24T06:06:54.585Z,9.02
2019-03-24T06:07:54.546Z,9.08
2019-03-24T06:08:54.538Z,9.10
2019-03-24T06:09:54.531Z,9.13
2019-03-24T06:10:54.509Z,9.18
2019-03-24T06:11:54.549Z,9.14
2019-03-24T06:12:54.493Z,9.14
2019-03-24T06:13:54.475Z,9.16
2019-03-24T06:14:54.482Z,9.13
2019-03-24T06:15:54.467Z,9.10
2019-03-24T06:16:54.447Z,9.06
2019-03-24T06:17:54.461Z,9.08
2019-03-24T06:18:54.427Z,9.11
2019-03-24T06:19:54.418Z,9.08
2019-03-24T06:20:54.407Z,9.14
2019-03-24T06:21:54.411Z,9.10
2019-03-24T06:22:54.388Z,9.16
2019-03-24T06:23:54.381Z,9.11
2019-03-24T06:24:54.361Z,9.25
2019-03-24T06:25:54.371Z,9.22
2019-03-24T06:26:54.366Z,9.28
2019-03-24T06:27:54.328Z,9.21
2019-03-24T06:28:54.318Z,9.26
2019-03-24T06:29:54.314Z,9.22
2019-03-24T06:30:54.303Z,9.25
2019-03-24T06:31:54.313Z,9.39
2019-03-24T06:32:54.280Z,9.43
2019-03-24T06:33:54.275Z,9.40
2019-03-24T06:34:54.255Z,9.55
2019-03-24T06:35:54.252Z,9.59
2019-03-24T06:36:54.262Z,9.69
2019-03-24T06:37:54.220Z,9.65
2019-03-24T06:38:54.274Z,9.68
2019-03-24T06:39:54.198Z,9.79
2019-03-24T06:40:54.188Z,9.83
2019-03-24T06:41:54.222Z,9.92
2019-03-24T06:42:54.173Z,10.04
2019-03-24T06:43:54.157Z,9.99
2019-03-24T06:44:54.159Z,10.09
2019-03-24T06:45:54.147Z,10.15
2019-03-24T06:46:54.152Z,10.10
2019-03-24T06:47:58.284Z,10.19
2019-03-24T06:48:54.125Z,10.26
2019-03-24T06:49:54.093Z,10.40
2019-03-24T06:50:54.080Z,10.40
2019-03-24T06:51:54.069Z,10.44
2019-03-24T06:52:54.081Z,10.51
2019-03-24T06:53:54.055Z,10.51
2019-03-24T06:54:54.046Z,10.59
2019-03-24T06:55:54.049Z,10.68
2019-03-24T06:56:54.030Z,10.59
2019-03-24T06:57:54.026Z,10.71
2019-03-24T06:58:53.999Z,10.67
2019-03-24T06:59:54.001Z,10.81
2019-03-24T07:00:53.981Z,10.78
2019-03-24T07:01:53.966Z,10.84
2019-03-24T07:02:53.985Z,10.82
2019-03-24T07:03:53.941Z,10.90
2019-03-24T07:04:53.932Z,10.97
2019-03-24T07:05:53.928Z,11.12
2019-03-24T07:06:53.917Z,11.11
2019-03-24T07:07:53.911Z,11.17
2019-03-24T07:08:53.917Z,11.17
2019-03-24T07:09:53.878Z,11.18
2019-03-24T07:10:53.874Z,11.19
2019-03-24T07:11:53.916Z,11.23
2019-03-24T07:12:53.854Z,11.26
2019-03-24T07:13:53.873Z,11.33
2019-03-24T07:14:53.896Z,11.36
2019-03-24T07:15:53.817Z,11.40
2019-03-24T07:16:53.855Z,11.48
2019-03-24T07:17:53.806Z,11.51
2019-03-24T07:18:53.789Z,11.52
2019-03-24T07:19:53.865Z,11.52
2019-03-24T07:20:53.768Z,11.57
2019-03-24T07:21:53.782Z,11.52
2019-03-24T07:22:53.772Z,11.57
2019-03-24T07:23:53.748Z,11.60
2019-03-24T07:24:53.769Z,11.63
2019-03-24T07:25:53.864Z,11.62
2019-03-24T07:26:53.711Z,11.63
2019-03-24T07:27:53.705Z,11.78
2019-03-24T07:28:53.710Z,11.81
2019-03-24T07:29:54.176Z,11.87
2019-03-24T07:30:55.428Z,11.95
2019-03-24T07:31:59.234Z,12.04
2019-03-24T07:32:54.299Z,11.99
2019-03-24T07:33:53.631Z,11.97
2019-03-24T07:34:53.613Z,11.94
2019-03-24T07:35:53.629Z,12.04
2019-03-24T07:36:53.639Z,11.97
2019-03-24T07:37:53.585Z,11.94
2019-03-24T07:38:53.573Z,11.95
2019-03-24T07:39:53.585Z,12.06
2019-03-24T07:40:53.550Z,12.09
2019-03-24T07:41:53.537Z,12.15
2019-03-24T07:42:53.523Z,12.22
2019-03-24T07:43:53.527Z,12.28
2019-03-24T07:44:53.608Z,12.42
2019-03-24T07:45:53.523Z,12.60
2019-03-24T07:46:53.490Z,12.55
2019-03-24T07:47:53.472Z,12.73
2019-03-24T07:48:53.459Z,12.78
2019-03-24T07:49:53.486Z,12.91
2019-03-24T07:50:53.439Z,12.86
2019-03-24T07:51:53.433Z,12.86
2019-03-24T07:52:53.426Z,12.97
2019-03-24T07:53:53.404Z,12.97
2019-03-24T07:54:53.394Z,12.98
2019-03-24T07:55:53.417Z,12.93
2019-03-24T07:56:53.375Z,13.01
2019-03-24T07:57:53.366Z,13.09
2019-03-24T07:58:53.392Z,12.90
2019-03-24T07:59:53.349Z,13.11
2019-03-24T08:00:53.335Z,13.11
2019-03-24T08:01:53.359Z,13.08
2019-03-24T08:02:53.317Z,13.04
2019-03-24T08:03:53.309Z,13.16
2019-03-24T08:04:53.297Z,13.04
2019-03-24T08:05:53.284Z,13.13
2019-03-24T08:06:53.297Z,13.23
2019-03-24T08:07:53.297Z,13.31
2019-03-24T08:08:53.250Z,13.30
2019-03-24T08:09:53.244Z,13.44
2019-03-24T08:10:53.253Z,13.63
2019-03-24T08:11:53.225Z,13.68
2019-03-24T08:12:53.352Z,13.95
2019-03-24T08:13:54.197Z,14.05
2019-03-24T08:14:53.210Z,14.23
2019-03-24T08:15:53.172Z,14.30
2019-03-24T08:16:53.158Z,14.33
2019-03-24T08:17:53.174Z,14.50
2019-03-24T08:18:53.143Z,14.55
2019-03-24T08:19:53.124Z,14.58
2019-03-24T08:20:53.119Z,14.70
2019-03-24T08:21:53.119Z,14.85
2019-03-24T08:22:53.139Z,14.79
2019-03-24T08:23:53.121Z,14.94
2019-03-24T08:24:53.081Z,14.94
2019-03-24T08:25:53.060Z,15.15
2019-03-24T08:26:53.052Z,15.21
2019-03-24T08:27:53.041Z,15.24
2019-03-24T08:28:53.028Z,15.28
2019-03-24T08:29:53.053Z,15.40
2019-03-24T08:30:53.013Z,15.54
2019-03-24T08:31:52.999Z,15.67
2019-03-24T08:32:52.999Z,15.79
2019-03-24T08:33:52.989Z,15.88
2019-03-24T08:34:52.999Z,16.13
2019-03-24T08:35:53.051Z,16.32
2019-03-24T08:36:52.955Z,16.46
2019-03-24T08:37:52.943Z,16.71
2019-03-24T08:38:52.936Z,16.60
2019-03-24T08:39:52.949Z,16.66
2019-03-24T08:40:54.327Z,16.66
2019-03-24T08:41:53.049Z,16.56
2019-03-24T08:42:52.903Z,16.42
2019-03-24T08:43:52.893Z,16.38
2019-03-24T08:44:52.934Z,16.26
2019-03-24T08:45:52.925Z,16.17
2019-03-24T08:46:52.852Z,16.12
2019-03-24T08:47:52.843Z,16.23
2019-03-24T08:48:52.828Z,16.16
2019-03-24T08:49:52.825Z,16.29
2019-03-24T08:50:53.019Z,16.50
2019-03-24T08:51:52.832Z,16.53
2019-03-24T08:52:52.841Z,16.60
2019-03-24T08:53:52.858Z,16.84
2019-03-24T08:54:52.795Z,17.04
2019-03-24T08:55:52.833Z,17.23
2019-03-24T08:56:52.836Z,17.54
2019-03-24T08:57:52.827Z,17.60
2019-03-24T08:58:52.809Z,17.95
2019-03-24T08:59:52.713Z,18.26
2019-03-24T09:00:52.752Z,18.18
2019-03-24T09:01:53.359Z,18.33
2019-03-24T09:02:52.681Z,18.52
2019-03-24T09:03:52.665Z,18.60
2019-03-24T09:04:52.656Z,18.45
2019-03-24T09:05:52.642Z,18.35
2019-03-24T09:06:52.644Z,18.25
2019-03-24T09:07:52.663Z,18.05
2019-03-24T09:08:52.614Z,17.90
2019-03-24T09:09:52.596Z,17.86
2019-03-24T09:10:52.606Z,17.86
2019-03-24T09:11:52.574Z,17.78
2019-03-24T09:12:52.595Z,18.22
2019-03-24T09:13:52.556Z,18.29
2019-03-24T09:14:52.550Z,19.09
2019-03-24T09:15:52.546Z,18.70
2019-03-24T09:16:52.516Z,18.65
2019-03-24T09:17:52.504Z,19.79
2019-03-24T09:18:53.184Z,20.26
2019-03-24T09:19:52.490Z,20.51
2019-03-24T09:20:52.490Z,21.92
2019-03-24T09:21:52.478Z,22.63
2019-03-24T09:22:52.467Z,23.91
2019-03-24T09:23:52.440Z,24.50
2019-03-24T09:24:52.449Z,25.16
2019-03-24T09:25:52.429Z,26.28
2019-03-24T09:26:52.442Z,26.16
2019-03-24T09:27:52.406Z,26.80
2019-03-24T09:28:52.394Z,27.26
2019-03-24T09:29:52.448Z,26.58
2019-03-24T09:30:52.387Z,28.05
2019-03-24T09:31:52.368Z,26.78
2019-03-24T09:32:52.369Z,26.99
2019-03-24T09:33:52.344Z,27.58
2019-03-24T09:34:52.415Z,28.48
2019-03-24T09:35:52.347Z,29.54
2019-03-24T09:36:52.310Z,29.16
2019-03-24T09:37:52.331Z,30.28
2019-03-24T09:38:52.293Z,31.02
2019-03-24T09:39:52.282Z,31.36
2019-03-24T09:40:52.273Z,31.96
2019-03-24T09:41:52.292Z,32.43
2019-03-24T09:42:52.247Z,32.77
2019-03-24T09:43:52.232Z,33.15
2019-03-24T09:44:52.234Z,33.40
2019-03-24T09:45:52.264Z,33.83
2019-03-24T09:46:52.295Z,34.21
2019-03-24T09:47:52.214Z,33.99
2019-03-24T09:49:02.478Z,34.11
2019-03-24T09:49:53.197Z,34.42
2019-03-24T09:50:52.207Z,34.71
2019-03-24T09:51:52.185Z,35.10
2019-03-24T09:52:52.154Z,35.29
2019-03-24T09:53:52.215Z,35.55
2019-03-24T09:54:52.139Z,35.67
2019-03-24T09:55:52.172Z,35.93
2019-03-24T09:56:52.147Z,36.12
2019-03-24T09:57:52.115Z,36.36
2019-03-24T09:58:52.096Z,36.46
2019-03-24T09:59:52.106Z,36.61
2019-03-24T10:00:52.095Z,36.72
2019-03-24T10:01:52.071Z,36.80
2019-03-24T10:02:52.170Z,36.77
2019-03-24T10:03:52.087Z,36.77
2019-03-24T10:04:52.054Z,36.73
2019-03-24T10:05:52.044Z,36.55
2019-03-24T10:06:52.030Z,36.57
2019-03-24T10:07:52.021Z,36.36
2019-03-24T10:08:52.027Z,35.56
2019-03-24T10:09:51.996Z,32.96
2019-03-24T10:10:51.993Z,30.90
2019-03-24T10:11:52.015Z,31.58
2019-03-24T10:12:51.991Z,32.16
2019-03-24T10:13:51.960Z,31.55
2019-03-24T10:14:51.998Z,29.14
2019-03-24T10:15:51.935Z,27.52
2019-03-24T10:16:51.943Z,26.47
2019-03-24T10:17:51.955Z,26.78
2019-03-24T10:18:51.924Z,26.38
2019-03-24T10:19:51.932Z,25.28
2019-03-24T10:20:51.896Z,24.48
2019-03-24T10:21:51.888Z,23.83
2019-03-24T10:22:51.920Z,23.21
2019-03-24T10:23:51.871Z,23.20
2019-03-24T10:24:51.929Z,23.65
2019-03-24T10:25:51.854Z,23.25
2019-03-24T10:26:51.838Z,22.65
2019-03-24T10:27:51.826Z,22.13
2019-03-24T10:28:51.869Z,22.04
2019-03-24T10:29:51.841Z,21.79
2019-03-24T10:30:51.807Z,21.95
2019-03-24T10:31:51.786Z,21.69
2019-03-24T10:32:51.793Z,21.75
2019-03-24T10:33:51.809Z,21.61
2019-03-24T10:34:51.785Z,21.64
2019-03-24T10:35:51.792Z,21.43
2019-03-24T10:36:51.749Z,21.15
2019-03-24T10:37:51.742Z,21.09
2019-03-24T10:38:51.734Z,21.00
2019-03-24T10:39:51.778Z,21.21
2019-03-24T10:40:51.699Z,21.45
2019-03-24T10:41:51.729Z,21.69
2019-03-24T10:42:51.735Z,21.96
2019-03-24T10:43:51.685Z,21.95
2019-03-24T10:44:51.721Z,21.70
2019-03-24T10:45:51.634Z,21.69
2019-03-24T10:46:51.674Z,21.72
2019-03-24T10:47:51.623Z,21.62
2019-03-24T10:48:51.635Z,21.61
2019-03-24T10:49:51.604Z,21.62
2019-03-24T10:50:51.589Z,21.60
2019-03-24T10:51:51.583Z,21.43
2019-03-24T10:52:51.568Z,21.42
2019-03-24T10:53:51.557Z,21.17
2019-03-24T10:54:51.561Z,20.92
2019-03-24T10:55:51.530Z,20.99
2019-03-24T10:56:51.531Z,21.06
2019-03-24T10:57:51.522Z,21.03
2019-03-24T10:58:51.556Z,20.67
2019-03-24T10:59:51.514Z,20.51
2019-03-24T11:00:51.482Z,20.29
2019-03-24T11:01:51.490Z,20.16
2019-03-24T11:02:51.477Z,20.14
2019-03-24T11:03:52.297Z,20.06
2019-03-24T11:04:51.476Z,20.14
2019-03-24T11:05:51.512Z,19.99
2019-03-24T11:06:51.416Z,19.85
2019-03-24T11:07:51.403Z,19.71
2019-03-24T11:08:51.394Z,19.70
2019-03-24T11:09:51.472Z,19.62
2019-03-24T11:10:51.383Z,19.59
2019-03-24T11:11:51.368Z,19.59
2019-03-24T11:12:51.374Z,19.66
2019-03-24T11:13:51.346Z,19.62
2019-03-24T11:14:52.299Z,19.66
2019-03-24T11:15:51.360Z,19.62
2019-03-24T11:16:51.322Z,19.62
2019-03-24T11:17:51.324Z,19.63
2019-03-24T11:18:51.293Z,19.56
2019-03-24T11:19:51.314Z,19.37
2019-03-24T11:20:51.267Z,19.47
2019-03-24T11:21:51.267Z,19.49
2019-03-24T11:22:51.323Z,19.39
2019-03-24T11:23:51.236Z,19.49
2019-03-24T11:24:51.328Z,19.49
2019-03-24T11:25:51.245Z,19.45
2019-03-24T11:26:51.227Z,19.45
2019-03-24T11:27:51.220Z,19.49
2019-03-24T11:28:51.247Z,19.33
2019-03-24T11:29:51.193Z,19.26
2019-03-24T11:30:51.168Z,19.21
2019-03-24T11:31:51.169Z,18.99
2019-03-24T11:32:51.146Z,18.81
2019-03-24T11:33:51.135Z,18.89
2019-03-24T11:34:51.124Z,18.99
2019-03-24T11:35:51.117Z,19.08
2019-03-24T11:36:51.135Z,19.07
2019-03-24T11:37:51.081Z,19.19
2019-03-24T11:38:51.075Z,19.24
2019-03-24T11:39:51.060Z,19.36
2019-03-24T11:40:51.075Z,19.36
2019-03-24T11:41:51.397Z,19.44
2019-03-24T11:42:51.035Z,19.56
2019-03-24T11:43:51.055Z,19.41
2019-03-24T11:44:51.019Z,19.44
2019-03-24T11:45:51.041Z,19.52
2019-03-24T11:46:51.017Z,19.48
2019-03-24T11:47:50.997Z,19.37
2019-03-24T11:48:51.007Z,19.34
2019-03-24T11:49:51.033Z,19.34
2019-03-24T11:50:50.961Z,19.30
2019-03-24T11:51:50.975Z,19.29
2019-03-24T11:52:50.970Z,19.11
2019-03-24T11:53:51.037Z,19.02
2019-03-24T11:54:50.942Z,18.99
2019-03-24T11:55:50.908Z,18.96
2019-03-24T11:56:50.915Z,18.93
2019-03-24T11:57:51.578Z,18.88
2019-03-24T11:58:51.050Z,18.81
2019-03-24T11:59:50.859Z,18.83
2019-03-24T12:00:50.847Z,18.81
2019-03-24T12:01:50.887Z,18.83
2019-03-24T12:02:50.823Z,18.68
2019-03-24T12:03:50.828Z,18.80
2019-03-24T12:04:50.797Z,18.93
2019-03-24T12:05:50.788Z,18.95
2019-03-24T12:06:50.809Z,18.92
2019-03-24T12:07:50.799Z,18.81
2019-03-24T12:08:50.888Z,18.77
2019-03-24T12:09:50.815Z,18.68
2019-03-24T12:10:50.761Z,18.60
2019-03-24T12:11:50.846Z,18.52
2019-03-24T12:12:50.770Z,18.43
2019-03-24T12:13:50.705Z,18.34
2019-03-24T12:14:50.703Z,18.43
2019-03-24T12:15:50.760Z,18.45
2019-03-24T12:16:50.734Z,18.38
2019-03-24T12:17:50.712Z,18.28
2019-03-24T12:18:50.825Z,18.10
2019-03-24T12:19:56.689Z,18.05
2019-03-24T12:20:52.435Z,18.03
2019-03-24T12:21:50.647Z,18.01
2019-03-24T12:22:50.608Z,18.00
2019-03-24T12:23:50.732Z,18.05
2019-03-24T12:24:50.592Z,18.05
2019-03-24T12:25:50.612Z,18.04
2019-03-24T12:26:50.600Z,18.00
2019-03-24T12:27:50.616Z,18.05
2019-03-24T12:28:50.561Z,18.18
2019-03-24T12:29:50.536Z,18.10
2019-03-24T12:30:50.531Z,17.86
2019-03-24T12:31:50.512Z,17.63
2019-03-24T12:32:51.531Z,17.45
2019-03-24T12:33:50.574Z,17.48
2019-03-24T12:34:50.527Z,17.42
2019-03-24T12:35:50.614Z,17.54
2019-03-24T12:36:52.181Z,17.65
2019-03-24T12:37:50.535Z,17.71
2019-03-24T12:38:51.197Z,17.78
2019-03-24T12:39:52.655Z,17.79
2019-03-24T12:40:50.538Z,17.86
2019-03-24T12:41:50.467Z,18.05
2019-03-24T12:42:50.809Z,18.10
2019-03-24T12:43:50.419Z,18.00
2019-03-24T12:44:50.401Z,18.19
2019-03-24T12:45:50.785Z,18.10
2019-03-24T12:46:50.431Z,18.08
2019-03-24T12:47:50.353Z,18.01
2019-03-24T12:48:50.482Z,18.03
2019-03-24T12:49:50.426Z,18.01
2019-03-24T12:50:50.380Z,17.85
2019-03-24T12:51:50.350Z,17.86
2019-03-24T12:52:50.857Z,17.92
2019-03-24T12:53:50.298Z,17.86
2019-03-24T12:54:50.344Z,17.82
2019-03-24T12:55:50.369Z,17.76
2019-03-24T12:56:50.901Z,17.79
2019-03-24T12:57:50.344Z,17.72
2019-03-24T12:58:50.274Z,17.65
2019-03-24T12:59:50.284Z,17.68